createdAt,value
2018-09-08T00:03:37.359Z,47.2
2018-09-08T00:08:36.157Z,47.2
2018-09-08T00:13:34.691Z,47.4
2018-09-08T00:18:33.841Z,47.4
2018-09-08T00:23:32.414Z,47.3
2018-09-08T00:28:31.118Z,47.4
2018-09-08T00:33:29.942Z,47.3
2018-09-08T00:38:28.843Z,47.4
2018-09-08T00:43:27.621Z,47.3
2018-09-08T00:48:26.063Z,47.3
2018-09-08T00:53:24.747Z,47.5
2018-09-08T00:58:22.883Z,47.5
2018-09-08T01:03:21.520Z,47.5
2018-09-08T01:08:20.197Z,47.5
2018-09-08T01:13:18.590Z,47.5
2018-09-08T01:18:17.316Z,47.5
2018-09-08T01:23:16.003Z,47.5
2018-09-08T01:28:14.648Z,47.4
2018-09-08T01:33:13.276Z,47.4
2018-09-08T01:38:11.870Z,47.4
2018-09-08T01:43:10.223Z,47.4
2018-09-08T01:48:08.840Z,47.5
2018-09-08T01:53:07.356Z,47.6
2018-09-08T01:58:06.039Z,47.6
2018-09-08T02:03:04.590Z,47.7
2018-09-08T02:08:03.041Z,47.7
2018-09-08T02:13:01.638Z,47.6
2018-09-08T02:18:00.157Z,47.7
2018-09-08T02:22:59.022Z,47.7
2018-09-08T02:27:57.928Z,47.8
2018-09-08T02:32:57.319Z,47.7
2018-09-08T02:37:55.521Z,47.7
2018-09-08T02:42:54.703Z,47.7
2018-09-08T02:47:53.073Z,47.8
2018-09-08T02:52:51.618Z,47.8
2018-09-08T02:57:50.281Z,47.8
2018-09-08T03:02:49.668Z,47.8
2018-09-08T03:07:48.276Z,47.8
2018-09-08T03:12:46.993Z,47.7
2018-09-08T03:17:45.787Z,47.7
2018-09-08T03:22:44.501Z,47.7
2018-09-08T03:27:43.211Z,47.7
2018-09-08T03:32:41.928Z,47.8
2018-09-08T03:37:40.685Z,47.8
2018-09-08T03:42:39.451Z,47.9
2018-09-08T03:47:37.641Z,48.1
2018-09-08T03:52:36.374Z,48.3
2018-09-08T03:57:35.112Z,48.2
2018-09-08T04:02:33.922Z,48.2
2018-09-08T04:07:32.773Z,48.1
2018-09-08T04:12:31.576Z,48.1
2018-09-08T04:17:30.225Z,48.1
2018-09-08T04:22:29.086Z,48.1
2018-09-08T04:27:27.111Z,48.1
2018-09-08T04:32:25.550Z,48.1
2018-09-08T04:37:24.052Z,48.1
2018-09-08T04:42:23.373Z,48
2018-09-08T04:47:21.908Z,47.9
2018-09-08T04:52:20.887Z,47.9
2018-09-08T04:57:19.812Z,47.8
2018-09-08T05:02:18.460Z,47.8
2018-09-08T05:07:17.041Z,47.8
2018-09-08T05:12:15.940Z,47.9
2018-09-08T05:17:14.601Z,48.2
2018-09-08T05:22:14.066Z,48.4
2018-09-08T05:27:12.808Z,48.6
2018-09-08T05:32:11.565Z,48.7
2018-09-08T05:37:10.273Z,48.9
2018-09-08T05:42:09.324Z,49
2018-09-08T05:47:08.267Z,49.1
2018-09-08T05:52:07.568Z,49.1
2018-09-08T05:57:06.584Z,49.2
2018-09-08T06:02:06.012Z,49.3
2018-09-08T06:07:04.796Z,49.9
2018-09-08T06:12:03.997Z,50.2
2018-09-08T06:17:02.929Z,50.9
2018-09-08T06:22:01.993Z,51.2
2018-09-08T06:27:00.816Z,51.5
2018-09-08T06:31:59.758Z,51.2
2018-09-08T06:36:58.573Z,50.5
2018-09-08T06:41:57.613Z,50.3
2018-09-08T06:46:56.387Z,50.3
2018-09-08T06:51:55.323Z,50.4
2018-09-08T06:56:53.961Z,50.5
2018-09-08T07:01:52.870Z,50.4
2018-09-08T07:06:51.556Z,50.5
2018-09-08T07:11:50.222Z,50.5
2018-09-08T07:16:49.009Z,50.3
2018-09-08T07:21:47.564Z,50.3
2018-09-08T07:26:47.038Z,50.3
2018-09-08T07:31:45.892Z,50.3
2018-09-08T07:36:44.728Z,50.5
2018-09-08T07:41:42.840Z,50.6
2018-09-08T07:46:41.531Z,50.8
2018-09-08T07:51:40.382Z,50.7
2018-09-08T07:56:39.360Z,50.1
2018-09-08T08:01:38.288Z,50.2
2018-09-08T08:06:36.814Z,50.4
2018-09-08T08:11:36.517Z,50.7
2018-09-08T08:16:35.413Z,50.4
2018-09-08T08:21:34.217Z,50.2
2018-09-08T08:26:33.357Z,49.9
2018-09-08T08:31:32.268Z,49.8
2018-09-08T08:36:31.290Z,49.8
2018-09-08T08:41:30.143Z,49.5
2018-09-08T08:46:29.361Z,49.4
2018-09-08T08:51:28.265Z,49.1
2018-09-08T08:56:26.671Z,48.9
2018-09-08T09:01:25.542Z,48.8
2018-09-08T09:06:24.417Z,48.7
2018-09-08T09:11:23.288Z,48.6
2018-09-08T09:16:21.814Z,48.6
2018-09-08T09:21:20.619Z,48.7
2018-09-08T09:26:19.343Z,48.6
2018-09-08T09:31:18.386Z,48.9
2018-09-08T09:36:17.295Z,49
2018-09-08T09:41:16.079Z,49.2
2018-09-08T09:46:14.849Z,49.2
2018-09-08T09:51:13.427Z,49.1
2018-09-08T09:56:12.124Z,48.9
2018-09-08T10:01:11.196Z,49
2018-09-08T10:06:10.055Z,48.8
2018-09-08T10:11:08.895Z,48.7
2018-09-08T10:16:07.811Z,48.6
2018-09-08T10:21:07.202Z,48.6
2018-09-08T10:26:06.142Z,48.5
2018-09-08T10:31:05.234Z,48.6
2018-09-08T10:36:04.051Z,48.7
2018-09-08T10:41:03.401Z,49.3
2018-09-08T10:46:02.260Z,49.9
2018-09-08T10:51:01.190Z,50.6
2018-09-08T10:56:00.147Z,50.7
2018-09-08T11:00:58.498Z,50.7
2018-09-08T11:05:57.378Z,50.8
2018-09-08T11:10:55.858Z,50.9
2018-09-08T11:15:54.900Z,51.4
2018-09-08T11:20:53.599Z,51.7
2018-09-08T11:25:52.663Z,51.4
2018-09-08T11:30:52.402Z,52
2018-09-08T11:35:51.067Z,53.2
2018-09-08T11:40:49.579Z,54.5
2018-09-08T11:45:48.575Z,54.4
2018-09-08T11:50:47.707Z,53.8
2018-09-08T11:55:46.999Z,53.3
2018-09-08T12:00:45.993Z,52.9
2018-09-08T12:05:44.832Z,52.9
2018-09-08T12:10:44.298Z,53
2018-09-08T12:15:43.337Z,53.2
2018-09-08T12:20:42.193Z,53.2
2018-09-08T12:25:41.016Z,53.6
2018-09-08T12:30:40.325Z,54
2018-09-08T12:35:39.366Z,53.7
2018-09-08T12:40:38.331Z,53.3
2018-09-08T12:45:37.173Z,52.9
2018-09-08T12:50:35.881Z,52.6
2018-09-08T12:55:35.291Z,52.1
2018-09-08T13:00:34.775Z,51.5
2018-09-08T13:05:33.497Z,50.9
2018-09-08T13:10:32.932Z,51.1
2018-09-08T13:15:32.199Z,51.1
2018-09-08T13:20:31.142Z,50.1
2018-09-08T13:25:30.456Z,49.8
2018-09-08T13:30:30.192Z,49.5
2018-09-08T13:35:28.735Z,49.3
2018-09-08T13:40:26.981Z,49.1
2018-09-08T13:45:26.019Z,49.4
2018-09-08T13:50:25.127Z,49.5
2018-09-08T13:55:25.217Z,50
2018-09-08T14:00:23.476Z,50.6
2018-09-08T14:05:22.436Z,51.4
2018-09-08T14:10:21.259Z,51.6
2018-09-08T14:15:20.335Z,52.7
2018-09-08T14:20:19.341Z,53.3
2018-09-08T14:25:18.331Z,52.4
2018-09-08T14:30:16.773Z,51.5
2018-09-08T14:35:15.776Z,50.3
2018-09-08T14:40:14.532Z,49.4
2018-09-08T14:45:13.366Z,48.7
2018-09-08T14:50:12.244Z,48.2
2018-09-08T14:55:11.072Z,47.9
2018-09-08T15:00:09.254Z,47.7
2018-09-08T15:05:08.440Z,47.4
2018-09-08T15:10:07.309Z,47.1
2018-09-08T15:15:06.126Z,46.9
2018-09-08T15:20:05.079Z,46.7
2018-09-08T15:25:04.013Z,46.5
2018-09-08T15:30:03.001Z,46.3
2018-09-08T15:35:01.951Z,46.1
2018-09-08T15:40:00.953Z,46.1
2018-09-08T15:44:59.976Z,46.3
2018-09-08T15:49:58.522Z,47
2018-09-08T15:54:57.429Z,49.7
2018-09-08T15:59:56.162Z,49.9
2018-09-08T16:10:02.267Z,49
2018-09-08T16:15:01.192Z,48
2018-09-08T16:19:59.986Z,47.6
2018-09-08T16:24:58.635Z,47.2
2018-09-08T16:29:58.223Z,46.9
2018-09-08T16:34:56.901Z,46.7
2018-09-08T16:39:56.306Z,46.6
2018-09-08T16:44:54.751Z,46.5
2018-09-08T16:49:53.564Z,46.4
2018-09-08T16:54:52.160Z,46.3
2018-09-08T16:59:50.913Z,46.2
2018-09-08T17:04:50.207Z,46.3
2018-09-08T17:09:49.026Z,46.2
2018-09-08T17:14:48.399Z,46.2
2018-09-08T17:19:47.039Z,46.2
2018-09-08T17:24:45.850Z,46.2
2018-09-08T17:29:44.629Z,46.3
2018-09-08T17:34:43.425Z,46.3
2018-09-08T17:39:42.457Z,46.4
2018-09-08T17:44:41.135Z,46.4
2018-09-08T17:49:39.453Z,46.5
2018-09-08T17:54:38.067Z,46.5
2018-09-08T17:59:37.069Z,46.8
2018-09-08T18:04:35.888Z,46.8
2018-09-08T18:09:34.665Z,46.8
2018-09-08T18:14:33.928Z,46.9
2018-09-08T18:19:32.591Z,46.9
2018-09-08T18:24:31.299Z,46.9
2018-09-08T18:29:29.938Z,47
2018-09-08T18:34:28.658Z,47
2018-09-08T18:39:27.287Z,47.1
2018-09-08T18:44:25.918Z,47.3
2018-09-08T18:49:24.809Z,47.3
2018-09-08T18:54:23.556Z,47.4
2018-09-08T18:59:22.313Z,47.5
2018-09-08T19:04:21.331Z,47.7
2018-09-08T19:09:19.783Z,47.7
2018-09-08T19:14:18.648Z,47.9
2018-09-08T19:19:17.436Z,48.1
2018-09-08T19:24:16.259Z,48.3
2018-09-08T19:29:15.091Z,48.4
2018-09-08T19:34:14.411Z,48.5
2018-09-08T19:39:13.975Z,48.6
2018-09-08T19:44:12.813Z,48.7
2018-09-08T19:49:11.890Z,48.8
2018-09-08T19:54:10.717Z,49.1
2018-09-08T19:59:09.481Z,50
2018-09-08T20:04:08.246Z,50.2
2018-09-08T20:09:07.260Z,50.1
2018-09-08T20:14:05.978Z,50.5
2018-09-08T20:19:05.301Z,50.3
2018-09-08T20:24:04.085Z,50.3
2018-09-08T20:29:03.217Z,50.7
2018-09-08T20:34:02.420Z,51
2018-09-08T20:39:01.202Z,51.1
2018-09-08T20:44:00.128Z,51.2
2018-09-08T20:48:59.018Z,51.2
2018-09-08T20:53:58.143Z,51.3
2018-09-08T20:58:57.094Z,51.3
2018-09-08T21:03:55.847Z,51.6
2018-09-08T21:08:54.807Z,51.5
2018-09-08T21:13:53.894Z,51.5
2018-09-08T21:18:52.335Z,51.5
2018-09-08T21:23:51.193Z,51.4
2018-09-08T21:28:50.269Z,51.4
2018-09-08T21:33:49.373Z,51.5
2018-09-08T21:38:48.401Z,51.5
2018-09-08T21:43:46.878Z,51.6
2018-09-08T21:48:45.699Z,51.7
2018-09-08T21:53:44.306Z,51.7
2018-09-08T21:58:43.067Z,51.6
2018-09-08T22:03:42.016Z,51.7
2018-09-08T22:08:40.366Z,51.7
2018-09-08T22:13:39.139Z,51.7
2018-09-08T22:18:37.752Z,51.6
2018-09-08T22:23:36.453Z,51.6
2018-09-08T22:28:35.513Z,51.7
2018-09-08T22:33:34.462Z,51.8
2018-09-08T22:38:33.426Z,51.9
2018-09-08T22:43:32.331Z,51.9
2018-09-08T22:48:31.406Z,51.9
2018-09-08T22:53:30.438Z,51.9
2018-09-08T22:58:29.372Z,51.9
2018-09-08T23:03:28.146Z,52
2018-09-08T23:08:26.857Z,52.1
2018-09-08T23:13:25.468Z,52
2018-09-08T23:18:24.213Z,52
2018-09-08T23:23:23.129Z,52.1
2018-09-08T23:28:22.163Z,52.1
2018-09-08T23:33:20.746Z,52.1
2018-09-08T23:38:19.752Z,52.1
2018-09-08T23:43:18.684Z,52.1
2018-09-08T23:48:17.985Z,52.1
2018-09-08T23:53:16.949Z,52.2
2018-09-08T23:58:15.633Z,52.4
